Weather reports worldwide

Advertisment
Ile du Levant, France (7678): temperature & dewpoint: 14.01.2021 14:00:00 - 20.01.2021 14:00:00 (CET)Ile du Levant, France (7678): wind speed & gusts: 14.01.2021 14:00:00 - 20.01.2021 14:00:00 (CET)Ile du Levant, France (7678): wind direction: 14.01.2021 14:00:00 - 20.01.2021 14:00:00 (CET)Ile du Levant, France (7678): reduced air pressure: 14.01.2021 14:00:00 - 20.01.2021 14:00:00 (CET)Ile du Levant, France (7678): sunshine duration: 14.01.2021 14:00:00 - 20.01.2021 14:00:00 (CET)Ile du Levant, France (7678): precipitation: 14.01.2021 14:00:00 - 20.01.2021 14:00:00 (CET)
Date & Time tt [°C] td [°C] ff [km/h] ff [kn] fx [km/h] fx [kn] dd ppp [hPa] sd [min] rr [mm]
20.01.2021 14:00:00 - - - - - - - - - -
20.01.2021 13:00:00 12,5 8,2 21 11 37 20 SSE 1018,5 2 0,0
20.01.2021 12:00:00 12,5 7,8 16 9 34 18 SSE 1019,0 1 0,0
20.01.2021 11:00:00 12,4 7,9 16 9 32 17 SSE 1019,8 0 0,0
20.01.2021 10:00:00 12,2 7,3 16 9 31 17 S 1020,0 0 0,0
20.01.2021 09:00:00 11,7 7,2 8 4 40 22 SSW 1019,9 0 0,2
20.01.2021 08:00:00 11,8 5,6 19 10 35 19 SW 1019,7 0 0,0
20.01.2021 07:00:00 11,6 8,3 18 10 34 18 SW 1019,9 0 0,0
20.01.2021 06:00:00 11,7 7,8 13 7 31 17 SW 1020,1 0 0,0
20.01.2021 05:00:00 11,8 8,8 18 10 47 26 SW 1020,3 0 0,0
20.01.2021 04:00:00 11,8 8,6 26 14 45 24 SW 1020,3 0 0,0
20.01.2021 03:00:00 11,8 8,8 20 11 39 21 SSW 1020,8 0 0,0
20.01.2021 02:00:00 11,7 8,9 16 9 35 19 SW 1021,2 0 0,0
20.01.2021 01:00:00 11,5 9,1 19 10 42 23 SW 1021,7 0 0,0
20.01.2021 00:00:00 11,5 8,5 24 13 45 25 WSW 1022,0 0 0,0
19.01.2021 23:00:00 11,6 8,4 29 16 45 24 WSW 1022,4 0 0,0
19.01.2021 22:00:00 11,3 9,2 22 12 45 24 WSW 1022,5 0 0,2
19.01.2021 21:00:00 11,1 10,2 24 13 42 23 WSW 1022,5 0 0,0
19.01.2021 20:00:00 10,8 9,1 8 4 13 7 WSW 1022,7 0 0,0
19.01.2021 19:00:00 10,6 8,2 10 5 14 8 W 1022,8 0 0,0
19.01.2021 18:00:00 10,1 7,3 10 6 15 8 WSW 1022,7 0 0,0
19.01.2021 17:00:00 10,3 6,4 8 4 16 9 WSW 1022,8 2 0,0
19.01.2021 16:00:00 10,7 5,9 12 7 26 14 W 1023,2 29 0,0
19.01.2021 15:00:00 11,8 5,4 18 10 26 14 W 1023,3 52 0,0
19.01.2021 14:00:00 11,7 3,2 16 9 28 15 W 1023,7 60 0,0
19.01.2021 13:00:00 11,1 4,3 18 10 27 15 W 1024,4 60 0,0
19.01.2021 12:00:00 10,7 6,1 16 9 24 13 W 1025,1 51 0,0
19.01.2021 11:00:00 10,6 6,7 7 4 15 8 WNW 1025,5 55 0,0
19.01.2021 10:00:00 10,2 6,9 5 3 7 4 WNW 1025,2 60 -
19.01.2021 09:00:00 8,7 6,7 3 2 5 3 NW 1024,7 45 0,0
19.01.2021 08:00:00 8,6 6,9 4 2 11 6 WNW 1024,7 0 0,0
19.01.2021 07:00:00 8,5 6,6 9 5 15 8 W 1024,8 0 0,0
19.01.2021 06:00:00 8,9 6,3 4 2 7 4 W 1024,6 0 0,0
19.01.2021 05:00:00 8,9 5,8 5 3 7 4 WSW 1024,6 0 0,0
19.01.2021 04:00:00 8,7 6,8 0 0 8 4 N 1024,7 0 0,0
19.01.2021 03:00:00 9,2 7,1 4 2 5 3 W 1025,1 0 0,0
19.01.2021 02:00:00 9,4 6,5 4 2 7 4 W 1025,1 0 0,0
19.01.2021 01:00:00 9,3 6,6 5 3 7 4 NNW 1025,2 0 0,0
19.01.2021 00:00:00 9,6 6,7 4 2 8 4 WNW 1025,3 0 0,0
18.01.2021 23:00:00 9,6 6,3 5 3 8 4 WNW 1025,3 0 0,0
18.01.2021 22:00:00 9,4 4,2 6 3 12 6 ENE 1025,0 0 0,0
18.01.2021 21:00:00 9,4 4,4 10 5 13 7 NE 1024,9 0 0,0
18.01.2021 20:00:00 9,3 3,9 10 5 15 8 NE 1024,6 0 0,0
18.01.2021 19:00:00 8,6 3,8 10 5 18 10 E 1024,3 0 0,0
18.01.2021 18:00:00 9,4 5,0 13 7 28 15 E 1023,7 0 0,0
18.01.2021 17:00:00 10,6 4,9 20 11 30 16 E 1022,9 15 0,0
18.01.2021 16:00:00 11,2 5,5 12 7 27 14 E 1022,7 40 0,0
18.01.2021 15:00:00 11,9 5,1 13 7 24 13 ENE 1022,3 44 0,0
18.01.2021 14:00:00 11,1 2,4 14 7 31 17 NE 1022,5 60 0,0
18.01.2021 13:00:00 10,9 -1,5 16 8 32 18 ENE 1022,6 60 0,0
18.01.2021 12:00:00 10,5 -0,1 16 8 28 15 E 1022,8 60 0,0
18.01.2021 11:00:00 10,3 0,3 5 3 13 7 ENE 1022,7 60 0,0
18.01.2021 10:00:00 9,2 -0,4 7 4 11 6 W 1022,3 60 0,0
18.01.2021 09:00:00 7,9 -1,1 6 4 11 6 W 1021,9 53 0,0
18.01.2021 08:00:00 7,8 -2,0 6 3 18 10 WNW 1021,5 0 0,0
18.01.2021 07:00:00 7,9 -2,5 10 6 15 8 N 1021,5 0 0,0
18.01.2021 06:00:00 8,5 -1,3 9 5 16 9 NNW 1021,0 0 0,0
18.01.2021 05:00:00 8,7 -0,4 11 6 17 9 NW 1020,9 0 0,0
18.01.2021 04:00:00 8,4 -0,9 14 8 18 10 NW 1020,9 0 0,0
18.01.2021 03:00:00 8,8 -0,8 9 5 23 12 W 1020,7 0 0,0
18.01.2021 02:00:00 9,2 -0,7 9 5 16 9 W 1020,0 0 0,0
18.01.2021 01:00:00 9,0 -0,9 13 7 27 15 NW 1019,7 0 0,0
18.01.2021 00:00:00 9,7 -1,4 17 9 39 21 NNW 1019,4 0 0,0
17.01.2021 23:00:00 9,6 -0,6 22 12 42 23 N 1018,5 0 0,0
17.01.2021 22:00:00 9,3 -1,7 21 12 51 27 NNW 1018,0 0 0,0
17.01.2021 21:00:00 9,7 -2,3 34 19 61 33 NNW 1017,5 0 0,0
17.01.2021 20:00:00 9,8 -1,0 31 17 65 35 NNW 1017,2 0 0,0
17.01.2021 19:00:00 10,8 -1,9 30 16 66 36 NNW 1016,1 0 0,0
17.01.2021 18:00:00 11,3 -1,2 44 24 75 40 NW 1014,8 16 0,0
17.01.2021 17:00:00 12,1 -0,4 50 27 75 41 WNW 1013,4 60 0,0
17.01.2021 16:00:00 13,0 -1,0 52 28 76 41 WNW 1013,1 60 0,0
17.01.2021 15:00:00 13,4 2,0 46 25 75 41 WNW 1012,9 60 0,0
17.01.2021 14:00:00 13,3 0,0 48 26 79 42 NW 1013,1 60 0,0
17.01.2021 13:00:00 13,6 -0,5 53 28 76 41 NW 1013,3 60 0,0
17.01.2021 12:00:00 13,5 0,1 54 29 78 42 WNW 1013,4 60 0,0
17.01.2021 11:00:00 12,4 1,7 54 29 77 42 WNW 1014,0 60 0,0
17.01.2021 10:00:00 11,8 2,8 52 28 78 42 WNW 1013,8 60 0,0
17.01.2021 09:00:00 10,9 3,4 58 31 82 44 WNW 1013,4 51 0,0
17.01.2021 08:00:00 9,5 4,5 48 26 74 40 W 1013,7 0 0,0
17.01.2021 07:00:00 9,1 3,5 52 28 82 44 W 1013,6 0 0,0
17.01.2021 06:00:00 8,9 3,1 53 29 80 43 W 1013,8 0 0,0
17.01.2021 05:00:00 9,0 4,0 50 27 77 42 W 1015,4 0 0,0
17.01.2021 04:00:00 9,7 2,8 55 30 78 42 WNW 1015,7 0 0,0
17.01.2021 03:00:00 9,7 2,3 56 30 78 42 WNW 1016,0 0 0,0
17.01.2021 02:00:00 9,0 0,7 39 21 52 28 WNW 1016,7 0 0,0
17.01.2021 01:00:00 7,6 -2,4 14 8 31 17 WNW 1017,9 0 0,0
17.01.2021 00:00:00 7,5 -5,6 24 13 52 28 WNW 1018,8 0 0,0
16.01.2021 23:00:00 7,8 -4,7 36 19 53 29 NW 1019,3 0 0,0
16.01.2021 22:00:00 7,9 -3,6 32 18 45 25 WNW 1019,6 0 0,0
16.01.2021 21:00:00 8,7 3,7 18 10 30 16 WNW 1020,5 0 0,0
16.01.2021 20:00:00 8,7 3,9 16 8 25 13 W 1020,8 0 0,0
16.01.2021 19:00:00 8,5 3,1 16 9 24 13 W 1021,0 0 0,0
16.01.2021 18:00:00 8,6 3,2 11 6 19 11 W 1021,2 0 0,0
16.01.2021 17:00:00 9,2 3,6 3 2 10 5 WSW 1021,1 0 0,0
16.01.2021 16:00:00 10,1 3,8 5 3 19 10 E 1020,8 22 0,0
16.01.2021 15:00:00 10,2 3,7 8 5 21 11 E 1020,8 17 0,0
16.01.2021 14:00:00 10,7 4,2 12 7 24 13 E 1020,6 21 0,0
16.01.2021 13:00:00 9,7 3,9 14 8 29 16 E 1021,0 1 0,0
16.01.2021 12:00:00 9,4 4,0 21 11 31 17 E 1021,4 0 0,0
16.01.2021 11:00:00 9,4 3,6 21 12 32 18 E 1021,4 0 0,0
16.01.2021 10:00:00 8,9 3,9 15 8 24 13 E 1021,1 0 0,0
16.01.2021 09:00:00 8,8 4,2 7 4 21 11 ENE 1020,6 0 0,0
16.01.2021 08:00:00 8,8 4,0 11 6 21 11 E 1020,0 0 0,0
16.01.2021 07:00:00 8,5 3,7 8 4 14 8 ENE 1020,0 0 0,0
16.01.2021 06:00:00 8,7 3,3 6 3 14 7 ESE 1019,6 0 0,0
16.01.2021 05:00:00 9,0 3,8 8 4 18 10 NE 1019,4 0 0,0
16.01.2021 04:00:00 9,4 4,6 10 5 18 10 NNE 1019,0 0 0,0
16.01.2021 03:00:00 9,2 4,6 10 5 17 9 ENE 1018,6 0 0,0
16.01.2021 02:00:00 9,0 5,2 10 5 23 12 N 1017,8 0 0,0
16.01.2021 01:00:00 9,4 4,6 13 7 21 12 NE 1017,4 0 0,0
16.01.2021 00:00:00 9,1 4,5 10 5 19 11 NE 1017,0 0 0,0
15.01.2021 23:00:00 9,0 5,0 8 4 22 12 E 1016,1 0 0,0
15.01.2021 22:00:00 8,5 5,1 9 5 30 16 ENE 1015,8 0 0,0
15.01.2021 21:00:00 8,4 2,0 16 9 30 16 NNE 1015,3 0 0,0
15.01.2021 20:00:00 8,8 0,2 9 5 27 15 NW 1014,8 0 0,0
15.01.2021 19:00:00 9,1 -0,3 18 10 38 20 WNW 1014,4 0 0,0
15.01.2021 18:00:00 9,8 -0,1 29 15 46 25 WNW 1013,8 16 0,0
15.01.2021 17:00:00 11,2 0,6 38 21 54 29 NW 1013,6 45 0,0
15.01.2021 16:00:00 12,1 1,7 38 21 55 30 NW 1012,9 60 0,0
15.01.2021 15:00:00 12,8 2,3 36 19 54 29 WNW 1012,6 52 0,0
15.01.2021 14:00:00 12,7 3,1 29 15 46 25 NW 1013,1 40 0,0
15.01.2021 13:00:00 13,7 2,9 19 11 41 22 NW 1013,8 60 0,0
15.01.2021 12:00:00 12,7 3,1 27 15 51 28 NW 1014,4 60 0,0
15.01.2021 11:00:00 12,1 2,3 29 16 57 31 NW 1014,5 60 0,0
15.01.2021 10:00:00 11,5 2,2 41 22 61 33 NW 1013,7 60 0,0
15.01.2021 09:00:00 11,0 2,6 35 19 71 38 NW 1013,1 37 0,0
15.01.2021 08:00:00 11,0 3,0 43 23 67 36 NW 1012,1 0 0,0
15.01.2021 07:00:00 11,0 3,3 39 21 56 30 NW 1011,9 0 0,0
15.01.2021 06:00:00 11,1 3,1 32 17 56 30 WNW 1012,0 0 0,0
15.01.2021 05:00:00 11,3 3,3 40 22 60 33 NW 1012,0 0 0,0
15.01.2021 04:00:00 11,6 3,1 45 24 71 39 NW 1012,3 0 0,0
15.01.2021 03:00:00 11,6 3,6 52 28 75 40 NW 1012,1 0 0,0
15.01.2021 02:00:00 11,7 3,7 35 19 68 37 WNW 1012,1 0 0,0
15.01.2021 01:00:00 12,1 3,3 34 18 63 34 WNW 1012,0 0 0,0
15.01.2021 00:00:00 12,2 4,2 46 25 71 38 NW 1011,8 0 0,0
14.01.2021 23:00:00 12,4 4,1 53 29 93 50 WNW 1011,2 0 0,0
14.01.2021 22:00:00 12,4 3,6 65 35 103 56 WNW 1010,1 0 0,0
14.01.2021 21:00:00 12,3 3,5 69 37 94 51 WNW 1010,0 0 0,0
14.01.2021 20:00:00 12,6 3,0 69 38 103 56 WNW 1009,7 0 0,0
14.01.2021 19:00:00 12,9 2,7 75 41 116 63 WNW 1009,1 0 0,0
14.01.2021 18:00:00 13,1 2,9 67 36 97 53 WNW 1009,1 16 0,0
14.01.2021 17:00:00 13,4 4,5 69 37 98 53 WNW 1008,7 60 0,0
14.01.2021 16:00:00 14,3 2,8 61 33 93 50 WNW 1009,1 60 0,0
14.01.2021 15:00:00 14,1 3,5 72 39 101 55 WNW 1008,6 60 0,0
14.01.2021 14:00:00 14,3 2,2 61 33 86 47 WNW 1009,4 60 0,0

tt = temperature
td = dewpoint
ff = wind speed
fx = gusts
dd = wind direction
ppp = reduced air pressure
sd = sunshine duration
rr = precipitation

Next stations